Portada
METAR-TAF:

METAR-TAF

Aeropuertos :

Aeropuerto Internacional de Maiquetía Simón Bolívar

Caracas, Venezuela

latitud: 10-36N, longitud: 066-59W, altitud: 43 m

Observación

El informe se hizo hace 7 minutos, a las 18:00 UTC
Viento 4 kt del este
Temperatura 30°C
Humedad 66%
Presión 1014 hPa
Visibilidad 10 km o más
Escasas nubes a una altura de 1600 ft

METAR: SVMI 181800Z 09004KT 9999 FEW016 30/23 Q1014

Hora: 14:07 (18:07 UTC)

Pronóstico

El informe se hizo hace 2 horas y 7 minutos, a las 16:00 UTC
Pronóstico válido del 18 a las 18 UTC al 19 a las 18 UTC
Viento 6 kt del este-noreste
Visibilidad 10 km o más
Nubes dispersas a una altura de 1600 ft
Evolucionando progresivamente
del 18 a las 18 UTC al 18 a las 22 UTC
Viento 5 kt del este-noreste
Visibilidad 10 km o más
Nubes dispersas a una altura de 2000 ft

TAF: SVMI 181600Z 1818/1918 07006KT 9999 SCT016 TX26/1812Z TN22/1721Z BECMG 1818/1822 07005KT 9999 SCT020

Observaciones y pronósticos meteorológicos de más de 4000 aeropuertos (mensajes METAR y TAF).

Los puntos amarillos y rojos representan las estaciones disponibles.

Ponga el ratón en el punto deseado para ver el nombre de la estación.

Haga clic para ver las observaciones y los pronósticos meteorológicos.

Para cambiar el mapa : haga clic en los botones verdes con una cruz de color negro para hacer un zoom, en el botón verde con un guión para alejar o en las flechas verdes para mapas adyacentes.


METAR-TAF: